Gold Coast Airport
YBCG : now visible

Airfield :











YOU CAN JOIN US ON...

 
LOGIN :

Register | Disclaimer

   EN    FR    IT 

 









Legend :    VFR   Marginal VFR   IFR   Intensive IFR   Very Intensive IFR
Visi :
Ceiling :
>= 8 km
>= 3000ft
5 to 8 km
1000 to 3000 ft
1500m to 5 km
500 to 1000 ft
800 to 1500m
200 to 500 ft
< 800m
< 200 ft
Symbols :   Thunderstorms  Fog  Heavy snow  Heavy precipitations  Wind > 20 kt






- Airport Elevation : 21 ft
- IATA code : OOL


YBCG - Gold Coast

CURRENT METAR :
  • 040600Z AUTO 31002KT 9999 // OVC120 14/10 Q1014 RF00.0/000.0

EXPIRED METARs :
  • 040530Z AUTO 29002KT 9999 // NCD 14/09 Q1013 RF00.0/000.0
  • 040500Z AUTO 28005KT 9999 // SCT100 15/09 Q1013 RF00.0/000.0
  • 040430Z AUTO 29005KT 9999 // NCD 15/09 Q1012 RF00.0/000.0
  • 040330Z AUTO 33002KT 9999 // NCD 16/08 Q1012 RF00.0/000.0

TAF TAF YBCG
Valid from the 04 at 06:00 until the 05 at 06:00 UTC


040515Z 0406/0506 31007KT CAVOK
FM040800 24005KT CAVOK
FM041200 VRB04KT 9999 -RA SCT025
FM041800 22005KT 9999 NSW BKN025
FM050000 19008KT 9999 BKN030
YBBB FIR / Oceania



MET'MAP, your aeronautical weather chart ! - Copyright ORBIFLY December 2007 - Disclaimer

ORBIFLY MET'MAP TEAM :

Programming & Development : Alexandra Zaïnal
Original concept : Baudouin d'Aumeries
Technical & hardware support : Manuel Goepfert
Assistance : Marc-Olivier Méhu




SOURCES & CREDITS :

   NOAA       Earth
Advisory